Aviation Digital Data Service (ADDS)

Output produced by METARs form (1125 UTC 19 February 2019)
found at http://www.aviationweather.gov/metar/data/
 
METAR text: ZSHC 191100Z 03004MPS 7000 BKN017 07/04 Q1023 NOSIG
Conditions at: ZSHC (HANGZHOU/JIANQIA, CN) observed 1100 UTC 19 February 2019
Temperature: 7.0°C (45°F)
Dewpoint: 4.0°C (39°F) [RH = 81%]
Pressure (altimeter): 30.21 inches Hg (1023.0 mb)
Winds: from the NNE (30 degrees) at 9 MPH (8 knots; 4.1 m/s)
Visibility: 4 miles ( 7 km)
Ceiling: 1700 feet AGL
Clouds: broken clouds at 1700 feet AGL
Weather: no significant weather observed at this time

METAR text: ZSHC 191030Z 02003MPS 350V050 6000 SCT012 BKN017 07/04 Q1023 NOSIG
Conditions at: ZSHC (HANGZHOU/JIANQIA, CN) observed 1030 UTC 19 February 2019
Temperature: 7.0°C (45°F)
Dewpoint: 4.0°C (39°F) [RH = 81%]
Pressure (altimeter): 30.21 inches Hg (1023.0 mb)
Winds: from the NNE (20 degrees) at 7 MPH (6 knots; 3.1 m/s)
Visibility: 4 miles ( 6 km)
Ceiling: 1700 feet AGL
Clouds: scattered clouds at 1200 feet AGL
broken clouds at 1700 feet AGL
Weather: no significant weather observed at this time

METAR text: ZSHC 191000Z 03004MPS 8000 SCT012 BKN020 07/04 Q1023 NOSIG
Conditions at: ZSHC (HANGZHOU/JIANQIA, CN) observed 1000 UTC 19 February 2019
Temperature: 7.0°C (45°F)
Dewpoint: 4.0°C (39°F) [RH = 81%]
Pressure (altimeter): 30.21 inches Hg (1023.0 mb)
Winds: from the NNE (30 degrees) at 9 MPH (8 knots; 4.1 m/s)
Visibility: 5 miles ( 8 km)
Ceiling: 2000 feet AGL
Clouds: scattered clouds at 1200 feet AGL
broken clouds at 2000 feet AGL
Weather: no significant weather observed at this time

METAR text: ZSHC 190930Z 03004MPS 360V060 8000 SCT017 BKN040 07/04 Q1022 NOSIG
Conditions at: ZSHC (HANGZHOU/JIANQIA, CN) observed 0930 UTC 19 February 2019
Temperature: 7.0°C (45°F)
Dewpoint: 4.0°C (39°F) [RH = 81%]
Pressure (altimeter): 30.18 inches Hg (1022.0 mb)
Winds: from the NNE (30 degrees) at 9 MPH (8 knots; 4.1 m/s)
Visibility: 5 miles ( 8 km)
Ceiling: 4000 feet AGL
Clouds: scattered clouds at 1700 feet AGL
broken clouds at 4000 feet AGL
Weather: no significant weather observed at this time

METAR text: ZSHC 190900Z 03004MPS 350V050 9999 BKN020 08/04 Q1023 NOSIG
Conditions at: ZSHC (HANGZHOU/JIANQIA, CN) observed 0900 UTC 19 February 2019
Temperature: 8.0°C (46°F)
Dewpoint: 4.0°C (39°F) [RH = 76%]
Pressure (altimeter): 30.21 inches Hg (1023.0 mb)
Winds: from the NNE (30 degrees) at 9 MPH (8 knots; 4.1 m/s)
Visibility: 6 or more miles (10+ km)
Ceiling: 2000 feet AGL
Clouds: broken clouds at 2000 feet AGL
Weather: no significant weather observed at this time

METAR text: ZSHC 190830Z 35004MPS 330V040 9999 BKN020 08/04 Q1022 NOSIG
Conditions at: ZSHC (HANGZHOU/JIANQIA, CN) observed 0830 UTC 19 February 2019
Temperature: 8.0°C (46°F)
Dewpoint: 4.0°C (39°F) [RH = 76%]
Pressure (altimeter): 30.18 inches Hg (1022.0 mb)
Winds: from the N (350 degrees) at 9 MPH (8 knots; 4.1 m/s)
Visibility: 6 or more miles (10+ km)
Ceiling: 2000 feet AGL
Clouds: broken clouds at 2000 feet AGL
Weather: no significant weather observed at this time

METAR text: ZSHC 190800Z 01004MPS 9999 BKN020 08/04 Q1022 NOSIG
Conditions at: ZSHC (HANGZHOU/JIANQIA, CN) observed 0800 UTC 19 February 2019
Temperature: 8.0°C (46°F)
Dewpoint: 4.0°C (39°F) [RH = 76%]
Pressure (altimeter): 30.18 inches Hg (1022.0 mb)
Winds: from the N (10 degrees) at 9 MPH (8 knots; 4.1 m/s)
Visibility: 6 or more miles (10+ km)
Ceiling: 2000 feet AGL
Clouds: broken clouds at 2000 feet AGL
Weather: no significant weather observed at this time

METAR text: ZSHC 190730Z 01004MPS 9999 BKN020 08/04 Q1022 NOSIG
Conditions at: ZSHC (HANGZHOU/JIANQIA, CN) observed 0730 UTC 19 February 2019
Temperature: 8.0°C (46°F)
Dewpoint: 4.0°C (39°F) [RH = 76%]
Pressure (altimeter): 30.18 inches Hg (1022.0 mb)
Winds: from the N (10 degrees) at 9 MPH (8 knots; 4.1 m/s)
Visibility: 6 or more miles (10+ km)
Ceiling: 2000 feet AGL
Clouds: broken clouds at 2000 feet AGL
Weather: no significant weather observed at this time

METAR text: ZSHC 190700Z 01003MPS 340V040 9999 BKN020 08/04 Q1022 NOSIG
Conditions at: ZSHC (HANGZHOU/JIANQIA, CN) observed 0700 UTC 19 February 2019
Temperature: 8.0°C (46°F)
Dewpoint: 4.0°C (39°F) [RH = 76%]
Pressure (altimeter): 30.18 inches Hg (1022.0 mb)
Winds: from the N (10 degrees) at 7 MPH (6 knots; 3.1 m/s)
Visibility: 6 or more miles (10+ km)
Ceiling: 2000 feet AGL
Clouds: broken clouds at 2000 feet AGL
Weather: no significant weather observed at this time

METAR text: ZSHC 190630Z 01003MPS 330V040 9999 BKN020 08/04 Q1022 NOSIG
Conditions at: ZSHC (HANGZHOU/JIANQIA, CN) observed 0630 UTC 19 February 2019
Temperature: 8.0°C (46°F)
Dewpoint: 4.0°C (39°F) [RH = 76%]
Pressure (altimeter): 30.18 inches Hg (1022.0 mb)
Winds: from the N (10 degrees) at 7 MPH (6 knots; 3.1 m/s)
Visibility: 6 or more miles (10+ km)
Ceiling: 2000 feet AGL
Clouds: broken clouds at 2000 feet AGL
Weather: no significant weather observed at this time

METAR text: ZSHC 190600Z 36003MPS 330V060 9999 BKN020 08/04 Q1021 NOSIG
Conditions at: ZSHC (HANGZHOU/JIANQIA, CN) observed 0600 UTC 19 February 2019
Temperature: 8.0°C (46°F)
Dewpoint: 4.0°C (39°F) [RH = 76%]
Pressure (altimeter): 30.15 inches Hg (1021.0 mb)
Winds: from the N (360 degrees) at 7 MPH (6 knots; 3.1 m/s)
Visibility: 6 or more miles (10+ km)
Ceiling: 2000 feet AGL
Clouds: broken clouds at 2000 feet AGL
Weather: no significant weather observed at this time

METAR text: ZSHC 190530Z 01003MPS 320V040 9999 BKN020 08/04 Q1022 NOSIG
Conditions at: ZSHC (HANGZHOU/JIANQIA, CN) observed 0530 UTC 19 February 2019
Temperature: 8.0°C (46°F)
Dewpoint: 4.0°C (39°F) [RH = 76%]
Pressure (altimeter): 30.18 inches Hg (1022.0 mb)
Winds: from the N (10 degrees) at 7 MPH (6 knots; 3.1 m/s)
Visibility: 6 or more miles (10+ km)
Ceiling: 2000 feet AGL
Clouds: broken clouds at 2000 feet AGL
Weather: no significant weather observed at this time

METAR text: ZSHC 190500Z 03004MPS 9999 FEW014 BKN020 08/04 Q1022 NOSIG
Conditions at: ZSHC (HANGZHOU/JIANQIA, CN) observed 0500 UTC 19 February 2019
Temperature: 8.0°C (46°F)
Dewpoint: 4.0°C (39°F) [RH = 76%]
Pressure (altimeter): 30.18 inches Hg (1022.0 mb)
Winds: from the NNE (30 degrees) at 9 MPH (8 knots; 4.1 m/s)
Visibility: 6 or more miles (10+ km)
Ceiling: 2000 feet AGL
Clouds: few clouds at 1400 feet AGL
broken clouds at 2000 feet AGL
Weather: no significant weather observed at this time

METAR text: ZSHC 190430Z 35003MPS 310V030 9999 SCT012 BKN020 08/04 Q1022 NOSIG
Conditions at: ZSHC (HANGZHOU/JIANQIA, CN) observed 0430 UTC 19 February 2019
Temperature: 8.0°C (46°F)
Dewpoint: 4.0°C (39°F) [RH = 76%]
Pressure (altimeter): 30.18 inches Hg (1022.0 mb)
Winds: from the N (350 degrees) at 7 MPH (6 knots; 3.1 m/s)
Visibility: 6 or more miles (10+ km)
Ceiling: 2000 feet AGL
Clouds: scattered clouds at 1200 feet AGL
broken clouds at 2000 feet AGL
Weather: no significant weather observed at this time

METAR text: ZSHC 190400Z 01003MPS 340V050 9999 SCT012 BKN020 08/04 Q1022 NOSIG
Conditions at: ZSHC (HANGZHOU/JIANQIA, CN) observed 0400 UTC 19 February 2019
Temperature: 8.0°C (46°F)
Dewpoint: 4.0°C (39°F) [RH = 76%]
Pressure (altimeter): 30.18 inches Hg (1022.0 mb)
Winds: from the N (10 degrees) at 7 MPH (6 knots; 3.1 m/s)
Visibility: 6 or more miles (10+ km)
Ceiling: 2000 feet AGL
Clouds: scattered clouds at 1200 feet AGL
broken clouds at 2000 feet AGL
Weather: no significant weather observed at this time

METAR text: ZSHC 190330Z 01004MPS 340V040 9999 SCT012 BKN020 08/05 Q1022 NOSIG
Conditions at: ZSHC (HANGZHOU/JIANQIA, CN) observed 0330 UTC 19 February 2019
Temperature: 8.0°C (46°F)
Dewpoint: 5.0°C (41°F) [RH = 81%]
Pressure (altimeter): 30.18 inches Hg (1022.0 mb)
Winds: from the N (10 degrees) at 9 MPH (8 knots; 4.1 m/s)
Visibility: 6 or more miles (10+ km)
Ceiling: 2000 feet AGL
Clouds: scattered clouds at 1200 feet AGL
broken clouds at 2000 feet AGL
Weather: no significant weather observed at this time

METAR text: ZSHC 190300Z 01004MPS 9999 SCT012 BKN020 07/05 Q1023 NOSIG
Conditions at: ZSHC (HANGZHOU/JIANQIA, CN) observed 0300 UTC 19 February 2019
Temperature: 7.0°C (45°F)
Dewpoint: 5.0°C (41°F) [RH = 87%]
Pressure (altimeter): 30.21 inches Hg (1023.0 mb)
Winds: from the N (10 degrees) at 9 MPH (8 knots; 4.1 m/s)
Visibility: 6 or more miles (10+ km)
Ceiling: 2000 feet AGL
Clouds: scattered clouds at 1200 feet AGL
broken clouds at 2000 feet AGL
Weather: no significant weather observed at this time

METAR text: ZSHC 190230Z 35002MPS 330V030 9999 SCT012 BKN020 07/05 Q1023 NOSIG
Conditions at: ZSHC (HANGZHOU/JIANQIA, CN) observed 0230 UTC 19 February 2019
Temperature: 7.0°C (45°F)
Dewpoint: 5.0°C (41°F) [RH = 87%]
Pressure (altimeter): 30.21 inches Hg (1023.0 mb)
Winds: from the N (350 degrees) at 5 MPH (4 knots; 2.1 m/s)
Visibility: 6 or more miles (10+ km)
Ceiling: 2000 feet AGL
Clouds: scattered clouds at 1200 feet AGL
broken clouds at 2000 feet AGL
Weather: no significant weather observed at this time

METAR text: ZSHC 190200Z 36003MPS 330V030 9999 SCT010 BKN020 07/05 Q1023 NOSIG
Conditions at: ZSHC (HANGZHOU/JIANQIA, CN) observed 0200 UTC 19 February 2019
Temperature: 7.0°C (45°F)
Dewpoint: 5.0°C (41°F) [RH = 87%]
Pressure (altimeter): 30.21 inches Hg (1023.0 mb)
Winds: from the N (360 degrees) at 7 MPH (6 knots; 3.1 m/s)
Visibility: 6 or more miles (10+ km)
Ceiling: 2000 feet AGL
Clouds: scattered clouds at 1000 feet AGL
broken clouds at 2000 feet AGL
Weather: no significant weather observed at this time

METAR text: ZSHC 190130Z 01003MPS 9999 SCT010 BKN020 07/05 Q1023 NOSIG
Conditions at: ZSHC (HANGZHOU/JIANQIA, CN) observed 0130 UTC 19 February 2019
Temperature: 7.0°C (45°F)
Dewpoint: 5.0°C (41°F) [RH = 87%]
Pressure (altimeter): 30.21 inches Hg (1023.0 mb)
Winds: from the N (10 degrees) at 7 MPH (6 knots; 3.1 m/s)
Visibility: 6 or more miles (10+ km)
Ceiling: 2000 feet AGL
Clouds: scattered clouds at 1000 feet AGL
broken clouds at 2000 feet AGL
Weather: no significant weather observed at this time

METAR text: ZSHC 190100Z 36003MPS 9999 BKN009 BKN020 07/05 Q1023 NOSIG
Conditions at: ZSHC (HANGZHOU/JIANQIA, CN) observed 0100 UTC 19 February 2019
Temperature: 7.0°C (45°F)
Dewpoint: 5.0°C (41°F) [RH = 87%]
Pressure (altimeter): 30.21 inches Hg (1023.0 mb)
Winds: from the N (360 degrees) at 7 MPH (6 knots; 3.1 m/s)
Visibility: 6 or more miles (10+ km)
Ceiling: 900 feet AGL
Clouds: broken clouds at 900 feet AGL
broken clouds at 2000 feet AGL
Weather: no significant weather observed at this time

METAR text: ZSHC 190030Z 33003MPS 9999 BKN009 BKN020 07/06 Q1022 NOSIG
Conditions at: ZSHC (HANGZHOU/JIANQIA, CN) observed 0030 UTC 19 February 2019
Temperature: 7.0°C (45°F)
Dewpoint: 6.0°C (43°F) [RH = 93%]
Pressure (altimeter): 30.18 inches Hg (1022.0 mb)
Winds: from the NNW (330 degrees) at 7 MPH (6 knots; 3.1 m/s)
Visibility: 6 or more miles (10+ km)
Ceiling: 900 feet AGL
Clouds: broken clouds at 900 feet AGL
broken clouds at 2000 feet AGL
Weather: no significant weather observed at this time

METAR text: ZSHC 190000Z 36002MPS 330V030 5000 -RA BR BKN008 BKN020 07/06 Q1022 BECMG TL0130 SCT008 BKN020
Conditions at: ZSHC (HANGZHOU/JIANQIA, CN) observed 0000 UTC 19 February 2019
Temperature: 7.0°C (45°F)
Dewpoint: 6.0°C (43°F) [RH = 93%]
Pressure (altimeter): 30.18 inches Hg (1022.0 mb)
Winds: from the N (360 degrees) at 5 MPH (4 knots; 2.1 m/s)
Visibility: 3 miles ( 5 km)
Ceiling: 800 feet AGL
Clouds: broken clouds at 800 feet AGL
broken clouds at 2000 feet AGL
Weather: -RA BR  (light rain, mist)

METAR text: ZSHC 182330Z VRB01MPS 3500 -RA BR BKN008 BKN020 07/07 Q1021 NOSIG
Conditions at: ZSHC (HANGZHOU/JIANQIA, CN) observed 2330 UTC 18 February 2019
Temperature: 7.0°C (45°F)
Dewpoint: 7.0°C (45°F) [RH = 100%]
Pressure (altimeter): 30.15 inches Hg (1021.0 mb)
Winds: variable direction winds at 2 MPH (2 knots; 1.0 m/s)
Visibility: 2.17 miles (3.49 km)
Ceiling: 800 feet AGL
Clouds: broken clouds at 800 feet AGL
broken clouds at 2000 feet AGL
Weather: -RA BR  (light rain, mist)

METAR text: ZSHC 182300Z 00000MPS 4000 BR SCT011 BKN020 07/07 Q1021 NOSIG
Conditions at: ZSHC (HANGZHOU/JIANQIA, CN) observed 2300 UTC 18 February 2019
Temperature: 7.0°C (45°F)
Dewpoint: 7.0°C (45°F) [RH = 100%]
Pressure (altimeter): 30.15 inches Hg (1021.0 mb)
Winds: calm
Visibility: 2.49 miles (4.01 km)
Ceiling: 2000 feet AGL
Clouds: scattered clouds at 1100 feet AGL
broken clouds at 2000 feet AGL
Weather: BR  (mist)

METAR text: ZSHC 182230Z 25002MPS 8000 SCT011 BKN020 07/06 Q1021 NOSIG
Conditions at: ZSHC (HANGZHOU/JIANQIA, CN) observed 2230 UTC 18 February 2019
Temperature: 7.0°C (45°F)
Dewpoint: 6.0°C (43°F) [RH = 93%]
Pressure (altimeter): 30.15 inches Hg (1021.0 mb)
Winds: from the WSW (250 degrees) at 5 MPH (4 knots; 2.1 m/s)
Visibility: 5 miles ( 8 km)
Ceiling: 2000 feet AGL
Clouds: scattered clouds at 1100 feet AGL
broken clouds at 2000 feet AGL
Weather: no significant weather observed at this time

METAR text: ZSHC 182200Z 29002MPS 250V320 8000 SCT011 BKN020 07/06 Q1020 NOSIG
Conditions at: ZSHC (HANGZHOU/JIANQIA, CN) observed 2200 UTC 18 February 2019
Temperature: 7.0°C (45°F)
Dewpoint: 6.0°C (43°F) [RH = 93%]
Pressure (altimeter): 30.12 inches Hg (1020.0 mb)
Winds: from the WNW (290 degrees) at 5 MPH (4 knots; 2.1 m/s)
Visibility: 5 miles ( 8 km)
Ceiling: 2000 feet AGL
Clouds: scattered clouds at 1100 feet AGL
broken clouds at 2000 feet AGL
Weather: no significant weather observed at this time

METAR text: ZSHC 182130Z 31001MPS 8000 FEW011 BKN020 07/06 Q1019 NOSIG
Conditions at: ZSHC (HANGZHOU/JIANQIA, CN) observed 2130 UTC 18 February 2019
Temperature: 7.0°C (45°F)
Dewpoint: 6.0°C (43°F) [RH = 93%]
Pressure (altimeter): 30.09 inches Hg (1019.0 mb)
Winds: from the NW (310 degrees) at 2 MPH (2 knots; 1.0 m/s)
Visibility: 5 miles ( 8 km)
Ceiling: 2000 feet AGL
Clouds: few clouds at 1100 feet AGL
broken clouds at 2000 feet AGL
Weather: no significant weather observed at this time

METAR text: ZSHC 182100Z 27002MPS 240V320 8000 FEW011 BKN020 07/06 Q1019 NOSIG
Conditions at: ZSHC (HANGZHOU/JIANQIA, CN) observed 2100 UTC 18 February 2019
Temperature: 7.0°C (45°F)
Dewpoint: 6.0°C (43°F) [RH = 93%]
Pressure (altimeter): 30.09 inches Hg (1019.0 mb)
Winds: from the W (270 degrees) at 5 MPH (4 knots; 2.1 m/s)
Visibility: 5 miles ( 8 km)
Ceiling: 2000 feet AGL
Clouds: few clouds at 1100 feet AGL
broken clouds at 2000 feet AGL
Weather: no significant weather observed at this time

METAR text: ZSHC 182030Z 28002MPS 7000 FEW011 BKN020 07/07 Q1019 NOSIG
Conditions at: ZSHC (HANGZHOU/JIANQIA, CN) observed 2030 UTC 18 February 2019
Temperature: 7.0°C (45°F)
Dewpoint: 7.0°C (45°F) [RH = 100%]
Pressure (altimeter): 30.09 inches Hg (1019.0 mb)
Winds: from the W (280 degrees) at 5 MPH (4 knots; 2.1 m/s)
Visibility: 4 miles ( 7 km)
Ceiling: 2000 feet AGL
Clouds: few clouds at 1100 feet AGL
broken clouds at 2000 feet AGL
Weather: no significant weather observed at this time

METAR text: ZSHC 182000Z 00000MPS 7000 FEW011 BKN020 07/06 Q1019 NOSIG
Conditions at: ZSHC (HANGZHOU/JIANQIA, CN) observed 2000 UTC 18 February 2019
Temperature: 7.0°C (45°F)
Dewpoint: 6.0°C (43°F) [RH = 93%]
Pressure (altimeter): 30.09 inches Hg (1019.0 mb)
Winds: calm
Visibility: 4 miles ( 7 km)
Ceiling: 2000 feet AGL
Clouds: few clouds at 1100 feet AGL
broken clouds at 2000 feet AGL
Weather: no significant weather observed at this time

METAR text: ZSHC 181930Z 27002MPS 240V310 7000 FEW011 BKN020 07/06 Q1018 NOSIG
Conditions at: ZSHC (HANGZHOU/JIANQIA, CN) observed 1930 UTC 18 February 2019
Temperature: 7.0°C (45°F)
Dewpoint: 6.0°C (43°F) [RH = 93%]
Pressure (altimeter): 30.06 inches Hg (1018.0 mb)
Winds: from the W (270 degrees) at 5 MPH (4 knots; 2.1 m/s)
Visibility: 4 miles ( 7 km)
Ceiling: 2000 feet AGL
Clouds: few clouds at 1100 feet AGL
broken clouds at 2000 feet AGL
Weather: no significant weather observed at this time

METAR text: ZSHC 181900Z 28002MPS 7000 FEW011 BKN020 07/06 Q1018 NOSIG
Conditions at: ZSHC (HANGZHOU/JIANQIA, CN) observed 1900 UTC 18 February 2019
Temperature: 7.0°C (45°F)
Dewpoint: 6.0°C (43°F) [RH = 93%]
Pressure (altimeter): 30.06 inches Hg (1018.0 mb)
Winds: from the W (280 degrees) at 5 MPH (4 knots; 2.1 m/s)
Visibility: 4 miles ( 7 km)
Ceiling: 2000 feet AGL
Clouds: few clouds at 1100 feet AGL
broken clouds at 2000 feet AGL
Weather: no significant weather observed at this time

METAR text: ZSHC 181830Z 28002MPS 230V330 7000 FEW011 BKN020 07/06 Q1018 NOSIG
Conditions at: ZSHC (HANGZHOU/JIANQIA, CN) observed 1830 UTC 18 February 2019
Temperature: 7.0°C (45°F)
Dewpoint: 6.0°C (43°F) [RH = 93%]
Pressure (altimeter): 30.06 inches Hg (1018.0 mb)
Winds: from the W (280 degrees) at 5 MPH (4 knots; 2.1 m/s)
Visibility: 4 miles ( 7 km)
Ceiling: 2000 feet AGL
Clouds: few clouds at 1100 feet AGL
broken clouds at 2000 feet AGL
Weather: no significant weather observed at this time

METAR text: ZSHC 181800Z 32002MPS 280V360 7000 FEW011 BKN020 07/06 Q1017 NOSIG
Conditions at: ZSHC (HANGZHOU/JIANQIA, CN) observed 1800 UTC 18 February 2019
Temperature: 7.0°C (45°F)
Dewpoint: 6.0°C (43°F) [RH = 93%]
Pressure (altimeter): 30.03 inches Hg (1017.0 mb)
Winds: from the NW (320 degrees) at 5 MPH (4 knots; 2.1 m/s)
Visibility: 4 miles ( 7 km)
Ceiling: 2000 feet AGL
Clouds: few clouds at 1100 feet AGL
broken clouds at 2000 feet AGL
Weather: no significant weather observed at this time

METAR text: ZSHC 181730Z 29002MPS 8000 FEW009 BKN020 07/06 Q1018 NOSIG
Conditions at: ZSHC (HANGZHOU/JIANQIA, CN) observed 1730 UTC 18 February 2019
Temperature: 7.0°C (45°F)
Dewpoint: 6.0°C (43°F) [RH = 93%]
Pressure (altimeter): 30.06 inches Hg (1018.0 mb)
Winds: from the WNW (290 degrees) at 5 MPH (4 knots; 2.1 m/s)
Visibility: 5 miles ( 8 km)
Ceiling: 2000 feet AGL
Clouds: few clouds at 900 feet AGL
broken clouds at 2000 feet AGL
Weather: no significant weather observed at this time

METAR text: ZSHC 181700Z 30002MPS 270V330 7000 BKN009 BKN020 07/06 Q1017 BECMG TL1730 BKN020
Conditions at: ZSHC (HANGZHOU/JIANQIA, CN) observed 1700 UTC 18 February 2019
Temperature: 7.0°C (45°F)
Dewpoint: 6.0°C (43°F) [RH = 93%]
Pressure (altimeter): 30.03 inches Hg (1017.0 mb)
Winds: from the WNW (300 degrees) at 5 MPH (4 knots; 2.1 m/s)
Visibility: 4 miles ( 7 km)
Ceiling: 900 feet AGL
Clouds: broken clouds at 900 feet AGL
broken clouds at 2000 feet AGL
Weather: no significant weather observed at this time

METAR text: ZSHC 181630Z 32003MPS 7000 -RA BKN009 BKN020 07/06 Q1017 NOSIG
Conditions at: ZSHC (HANGZHOU/JIANQIA, CN) observed 1630 UTC 18 February 2019
Temperature: 7.0°C (45°F)
Dewpoint: 6.0°C (43°F) [RH = 93%]
Pressure (altimeter): 30.03 inches Hg (1017.0 mb)
Winds: from the NW (320 degrees) at 7 MPH (6 knots; 3.1 m/s)
Visibility: 4 miles ( 7 km)
Ceiling: 900 feet AGL
Clouds: broken clouds at 900 feet AGL
broken clouds at 2000 feet AGL
Weather: -RA  (light rain)

METAR text: ZSHC 181600Z 29003MPS 6000 -RA FEW005 BKN009 BKN020 07/07 Q1018 NOSIG
Conditions at: ZSHC (HANGZHOU/JIANQIA, CN) observed 1600 UTC 18 February 2019
Temperature: 7.0°C (45°F)
Dewpoint: 7.0°C (45°F) [RH = 100%]
Pressure (altimeter): 30.06 inches Hg (1018.0 mb)
Winds: from the WNW (290 degrees) at 7 MPH (6 knots; 3.1 m/s)
Visibility: 4 miles ( 6 km)
Ceiling: 900 feet AGL
Clouds: few clouds at 500 feet AGL
broken clouds at 900 feet AGL
broken clouds at 2000 feet AGL
Weather: -RA  (light rain)

METAR text: ZSHC 181530Z 29003MPS 5000 -RA BR FEW005 BKN009 BKN020 07/07 Q1018 NOSIG
Conditions at: ZSHC (HANGZHOU/JIANQIA, CN) observed 1530 UTC 18 February 2019
Temperature: 7.0°C (45°F)
Dewpoint: 7.0°C (45°F) [RH = 100%]
Pressure (altimeter): 30.06 inches Hg (1018.0 mb)
Winds: from the WNW (290 degrees) at 7 MPH (6 knots; 3.1 m/s)
Visibility: 3 miles ( 5 km)
Ceiling: 900 feet AGL
Clouds: few clouds at 500 feet AGL
broken clouds at 900 feet AGL
broken clouds at 2000 feet AGL
Weather: -RA BR  (light rain, mist)

METAR text: ZSHC 181500Z 31002MPS 5000 -RA BR SCT005 BKN020 07/07 Q1017 NOSIG
Conditions at: ZSHC (HANGZHOU/JIANQIA, CN) observed 1500 UTC 18 February 2019
Temperature: 7.0°C (45°F)
Dewpoint: 7.0°C (45°F) [RH = 100%]
Pressure (altimeter): 30.03 inches Hg (1017.0 mb)
Winds: from the NW (310 degrees) at 5 MPH (4 knots; 2.1 m/s)
Visibility: 3 miles ( 5 km)
Ceiling: 2000 feet AGL
Clouds: scattered clouds at 500 feet AGL
broken clouds at 2000 feet AGL
Weather: -RA BR  (light rain, mist)

METAR text: ZSHC 181430Z 28003MPS 5000 -RA BR SCT005 BKN020 07/06 Q1018 NOSIG
Conditions at: ZSHC (HANGZHOU/JIANQIA, CN) observed 1430 UTC 18 February 2019
Temperature: 7.0°C (45°F)
Dewpoint: 6.0°C (43°F) [RH = 93%]
Pressure (altimeter): 30.06 inches Hg (1018.0 mb)
Winds: from the W (280 degrees) at 7 MPH (6 knots; 3.1 m/s)
Visibility: 3 miles ( 5 km)
Ceiling: 2000 feet AGL
Clouds: scattered clouds at 500 feet AGL
broken clouds at 2000 feet AGL
Weather: -RA BR  (light rain, mist)

METAR text: ZSHC 181400Z 29002MPS 250V320 5000 -RA BR SCT005 BKN020 07/06 Q1017 NOSIG
Conditions at: ZSHC (HANGZHOU/JIANQIA, CN) observed 1400 UTC 18 February 2019
Temperature: 7.0°C (45°F)
Dewpoint: 6.0°C (43°F) [RH = 93%]
Pressure (altimeter): 30.03 inches Hg (1017.0 mb)
Winds: from the WNW (290 degrees) at 5 MPH (4 knots; 2.1 m/s)
Visibility: 3 miles ( 5 km)
Ceiling: 2000 feet AGL
Clouds: scattered clouds at 500 feet AGL
broken clouds at 2000 feet AGL
Weather: -RA BR  (light rain, mist)

METAR text: ZSHC 181330Z 29002MPS 5000 -RA BR SCT005 BKN020 06/06 Q1017 NOSIG
Conditions at: ZSHC (HANGZHOU/JIANQIA, CN) observed 1330 UTC 18 February 2019
Temperature: 6.0°C (43°F)
Dewpoint: 6.0°C (43°F) [RH = 100%]
Pressure (altimeter): 30.03 inches Hg (1017.0 mb)
Winds: from the WNW (290 degrees) at 5 MPH (4 knots; 2.1 m/s)
Visibility: 3 miles ( 5 km)
Ceiling: 2000 feet AGL
Clouds: scattered clouds at 500 feet AGL
broken clouds at 2000 feet AGL
Weather: -RA BR  (light rain, mist)

METAR text: ZSHC 181300Z VRB01MPS 5000 -RA BR SCT005 BKN020 06/06 Q1017 NOSIG
Conditions at: ZSHC (HANGZHOU/JIANQIA, CN) observed 1300 UTC 18 February 2019
Temperature: 6.0°C (43°F)
Dewpoint: 6.0°C (43°F) [RH = 100%]
Pressure (altimeter): 30.03 inches Hg (1017.0 mb)
Winds: variable direction winds at 2 MPH (2 knots; 1.0 m/s)
Visibility: 3 miles ( 5 km)
Ceiling: 2000 feet AGL
Clouds: scattered clouds at 500 feet AGL
broken clouds at 2000 feet AGL
Weather: -RA BR  (light rain, mist)

METAR text: ZSHC 181230Z 25001MPS 5000 -RA BR SCT005 BKN020 06/06 Q1017 NOSIG
Conditions at: ZSHC (HANGZHOU/JIANQIA, CN) observed 1230 UTC 18 February 2019
Temperature: 6.0°C (43°F)
Dewpoint: 6.0°C (43°F) [RH = 100%]
Pressure (altimeter): 30.03 inches Hg (1017.0 mb)
Winds: from the WSW (250 degrees) at 2 MPH (2 knots; 1.0 m/s)
Visibility: 3 miles ( 5 km)
Ceiling: 2000 feet AGL
Clouds: scattered clouds at 500 feet AGL
broken clouds at 2000 feet AGL
Weather: -RA BR  (light rain, mist)

METAR text: ZSHC 181200Z 24002MPS 5000 -RA BR BKN004 BKN020 06/06 Q1018 BECMG TL1230 SCT005 BKN020
Conditions at: ZSHC (HANGZHOU/JIANQIA, CN) observed 1200 UTC 18 February 2019
Temperature: 6.0°C (43°F)
Dewpoint: 6.0°C (43°F) [RH = 100%]
Pressure (altimeter): 30.06 inches Hg (1018.0 mb)
Winds: from the WSW (240 degrees) at 5 MPH (4 knots; 2.1 m/s)
Visibility: 3 miles ( 5 km)
Ceiling: 400 feet AGL
Clouds: broken clouds at 400 feet AGL
broken clouds at 2000 feet AGL
Weather: -RA BR  (light rain, mist)

METAR text: ZSHC 181130Z 27002MPS 5000 -RA BR BKN004 BKN020 06/06 Q1018 NOSIG
Conditions at: ZSHC (HANGZHOU/JIANQIA, CN) observed 1130 UTC 18 February 2019
Temperature: 6.0°C (43°F)
Dewpoint: 6.0°C (43°F) [RH = 100%]
Pressure (altimeter): 30.06 inches Hg (1018.0 mb)
Winds: from the W (270 degrees) at 5 MPH (4 knots; 2.1 m/s)
Visibility: 3 miles ( 5 km)
Ceiling: 400 feet AGL
Clouds: broken clouds at 400 feet AGL
broken clouds at 2000 feet AGL
Weather: -RA BR  (light rain, mist)

METAR text: ZSHC 181100Z 21002MPS 4500 -RA BR BKN004 BKN020 06/06 Q1018 NOSIG
Conditions at: ZSHC (HANGZHOU/JIANQIA, CN) observed 1100 UTC 18 February 2019
Temperature: 6.0°C (43°F)
Dewpoint: 6.0°C (43°F) [RH = 100%]
Pressure (altimeter): 30.06 inches Hg (1018.0 mb)
Winds: from the SSW (210 degrees) at 5 MPH (4 knots; 2.1 m/s)
Visibility: 2.80 miles (4.51 km)
Ceiling: 400 feet AGL
Clouds: broken clouds at 400 feet AGL
broken clouds at 2000 feet AGL
Weather: -RA BR  (light rain, mist)

METAR text: ZSHC 181030Z 21001MPS 3500 -RA BR BKN004 BKN020 07/06 Q1018 NOSIG
Conditions at: ZSHC (HANGZHOU/JIANQIA, CN) observed 1030 UTC 18 February 2019
Temperature: 7.0°C (45°F)
Dewpoint: 6.0°C (43°F) [RH = 93%]
Pressure (altimeter): 30.06 inches Hg (1018.0 mb)
Winds: from the SSW (210 degrees) at 2 MPH (2 knots; 1.0 m/s)
Visibility: 2.17 miles (3.49 km)
Ceiling: 400 feet AGL
Clouds: broken clouds at 400 feet AGL
broken clouds at 2000 feet AGL
Weather: -RA BR  (light rain, mist)

METAR text: ZSHC 181000Z VRB01MPS 2200 -RA BR BKN004 BKN020 07/07 Q1018 BECMG TL1130 3000
Conditions at: ZSHC (HANGZHOU/JIANQIA, CN) observed 1000 UTC 18 February 2019
Temperature: 7.0°C (45°F)
Dewpoint: 7.0°C (45°F) [RH = 100%]
Pressure (altimeter): 30.06 inches Hg (1018.0 mb)
Winds: variable direction winds at 2 MPH (2 knots; 1.0 m/s)
Visibility: 1.37 miles (2.20 km)
Ceiling: 400 feet AGL
Clouds: broken clouds at 400 feet AGL
broken clouds at 2000 feet AGL
Weather: -RA BR  (light rain, mist)

METAR text: ZSHC 180930Z 27002MPS 2500 -RA BR BKN004 BKN020 07/06 Q1018 NOSIG
Conditions at: ZSHC (HANGZHOU/JIANQIA, CN) observed 0930 UTC 18 February 2019
Temperature: 7.0°C (45°F)
Dewpoint: 6.0°C (43°F) [RH = 93%]
Pressure (altimeter): 30.06 inches Hg (1018.0 mb)
Winds: from the W (270 degrees) at 5 MPH (4 knots; 2.1 m/s)
Visibility: 1.55 miles (2.49 km)
Ceiling: 400 feet AGL
Clouds: broken clouds at 400 feet AGL
broken clouds at 2000 feet AGL
Weather: -RA BR  (light rain, mist)

METAR text: ZSHC 180900Z 24002MPS 2500 -SHRA BR BKN004 BKN020 07/07 Q1018 NOSIG
Conditions at: ZSHC (HANGZHOU/JIANQIA, CN) observed 0900 UTC 18 February 2019
Temperature: 7.0°C (45°F)
Dewpoint: 7.0°C (45°F) [RH = 100%]
Pressure (altimeter): 30.06 inches Hg (1018.0 mb)
Winds: from the WSW (240 degrees) at 5 MPH (4 knots; 2.1 m/s)
Visibility: 1.55 miles (2.49 km)
Ceiling: 400 feet AGL
Clouds: broken clouds at 400 feet AGL
broken clouds at 2000 feet AGL
Weather: -SHRA BR  (light rain showers, mist)

METAR text: ZSHC 180830Z 26002MPS 230V290 2500 -SHRA BR BKN004 BKN020 07/07 Q1018 NOSIG
Conditions at: ZSHC (HANGZHOU/JIANQIA, CN) observed 0830 UTC 18 February 2019
Temperature: 7.0°C (45°F)
Dewpoint: 7.0°C (45°F) [RH = 100%]
Pressure (altimeter): 30.06 inches Hg (1018.0 mb)
Winds: from the W (260 degrees) at 5 MPH (4 knots; 2.1 m/s)
Visibility: 1.55 miles (2.49 km)
Ceiling: 400 feet AGL
Clouds: broken clouds at 400 feet AGL
broken clouds at 2000 feet AGL
Weather: -SHRA BR  (light rain showers, mist)

METAR text: ZSHC 180800Z 00000MPS 2500 -SHRA BR BKN004 BKN020 07/07 Q1018 BECMG TL0900 3000
Conditions at: ZSHC (HANGZHOU/JIANQIA, CN) observed 0800 UTC 18 February 2019
Temperature: 7.0°C (45°F)
Dewpoint: 7.0°C (45°F) [RH = 100%]
Pressure (altimeter): 30.06 inches Hg (1018.0 mb)
Winds: calm
Visibility: 1.55 miles (2.49 km)
Ceiling: 400 feet AGL
Clouds: broken clouds at 400 feet AGL
broken clouds at 2000 feet AGL
Weather: -SHRA BR  (light rain showers, mist)

METAR text: ZSHC 180730Z VRB01MPS 2500 -SHRA BR BKN005 BKN020 07/07 Q1018 NOSIG
Conditions at: ZSHC (HANGZHOU/JIANQIA, CN) observed 0730 UTC 18 February 2019
Temperature: 7.0°C (45°F)
Dewpoint: 7.0°C (45°F) [RH = 100%]
Pressure (altimeter): 30.06 inches Hg (1018.0 mb)
Winds: variable direction winds at 2 MPH (2 knots; 1.0 m/s)
Visibility: 1.55 miles (2.49 km)
Ceiling: 500 feet AGL
Clouds: broken clouds at 500 feet AGL
broken clouds at 2000 feet AGL
Weather: -SHRA BR  (light rain showers, mist)

METAR text: ZSHC 180700Z VRB01MPS 3000 -SHRA BR BKN005 BKN020 07/07 Q1018 NOSIG
Conditions at: ZSHC (HANGZHOU/JIANQIA, CN) observed 0700 UTC 18 February 2019
Temperature: 7.0°C (45°F)
Dewpoint: 7.0°C (45°F) [RH = 100%]
Pressure (altimeter): 30.06 inches Hg (1018.0 mb)
Winds: variable direction winds at 2 MPH (2 knots; 1.0 m/s)
Visibility: 1.86 miles (2.99 km)
Ceiling: 500 feet AGL
Clouds: broken clouds at 500 feet AGL
broken clouds at 2000 feet AGL
Weather: -SHRA BR  (light rain showers, mist)

METAR text: ZSHC 180630Z 14002MPS 090V180 3000 -SHRA BR BKN005 BKN020 07/07 Q1019 NOSIG
Conditions at: ZSHC (HANGZHOU/JIANQIA, CN) observed 0630 UTC 18 February 2019
Temperature: 7.0°C (45°F)
Dewpoint: 7.0°C (45°F) [RH = 100%]
Pressure (altimeter): 30.09 inches Hg (1019.0 mb)
Winds: from the SE (140 degrees) at 5 MPH (4 knots; 2.1 m/s)
Visibility: 1.86 miles (2.99 km)
Ceiling: 500 feet AGL
Clouds: broken clouds at 500 feet AGL
broken clouds at 2000 feet AGL
Weather: -SHRA BR  (light rain showers, mist)

METAR text: ZSHC 180600Z 13002MPS 2800 -SHRA BR BKN005 BKN020 07/07 Q1019 BECMG TL0630 3000
Conditions at: ZSHC (HANGZHOU/JIANQIA, CN) observed 0600 UTC 18 February 2019
Temperature: 7.0°C (45°F)
Dewpoint: 7.0°C (45°F) [RH = 100%]
Pressure (altimeter): 30.09 inches Hg (1019.0 mb)
Winds: from the SE (130 degrees) at 5 MPH (4 knots; 2.1 m/s)
Visibility: 1.74 miles (2.80 km)
Ceiling: 500 feet AGL
Clouds: broken clouds at 500 feet AGL
broken clouds at 2000 feet AGL
Weather: -SHRA BR  (light rain showers, mist)

METAR text: ZSHC 180530Z 12002MPS 090V160 2500 -SHRA BR BKN005 BKN020 07/06 Q1019 NOSIG
Conditions at: ZSHC (HANGZHOU/JIANQIA, CN) observed 0530 UTC 18 February 2019
Temperature: 7.0°C (45°F)
Dewpoint: 6.0°C (43°F) [RH = 93%]
Pressure (altimeter): 30.09 inches Hg (1019.0 mb)
Winds: from the ESE (120 degrees) at 5 MPH (4 knots; 2.1 m/s)
Visibility: 1.55 miles (2.49 km)
Ceiling: 500 feet AGL
Clouds: broken clouds at 500 feet AGL
broken clouds at 2000 feet AGL
Weather: -SHRA BR  (light rain showers, mist)

METAR text: ZSHC 180500Z 10003MPS 070V140 2500 -SHRA BR BKN005 BKN020 07/06 Q1020 BECMG TL0600 SHRA
Conditions at: ZSHC (HANGZHOU/JIANQIA, CN) observed 0500 UTC 18 February 2019
Temperature: 7.0°C (45°F)
Dewpoint: 6.0°C (43°F) [RH = 93%]
Pressure (altimeter): 30.12 inches Hg (1020.0 mb)
Winds: from the E (100 degrees) at 7 MPH (6 knots; 3.1 m/s)
Visibility: 1.55 miles (2.49 km)
Ceiling: 500 feet AGL
Clouds: broken clouds at 500 feet AGL
broken clouds at 2000 feet AGL
Weather: -SHRA BR  (light rain showers, mist)

METAR text: ZSHC 180430Z 11003MPS 080V150 2500 -SHRA BR BKN005 BKN020 06/06 Q1020 RESHRA NOSIG
Conditions at: ZSHC (HANGZHOU/JIANQIA, CN) observed 0430 UTC 18 February 2019
Temperature: 6.0°C (43°F)
Dewpoint: 6.0°C (43°F) [RH = 100%]
Pressure (altimeter): 30.12 inches Hg (1020.0 mb)
Winds: from the ESE (110 degrees) at 7 MPH (6 knots; 3.1 m/s)
Visibility: 1.55 miles (2.49 km)
Ceiling: 500 feet AGL
Clouds: broken clouds at 500 feet AGL
broken clouds at 2000 feet AGL
Weather: -SHRA BR  (light rain showers, mist)

METAR text: ZSHC 180400Z 10002MPS 070V150 2800 -SHRA BR BKN005 BKN020 06/06 Q1021 BECMG TL0430 3000
Conditions at: ZSHC (HANGZHOU/JIANQIA, CN) observed 0400 UTC 18 February 2019
Temperature: 6.0°C (43°F)
Dewpoint: 6.0°C (43°F) [RH = 100%]
Pressure (altimeter): 30.15 inches Hg (1021.0 mb)
Winds: from the E (100 degrees) at 5 MPH (4 knots; 2.1 m/s)
Visibility: 1.74 miles (2.80 km)
Ceiling: 500 feet AGL
Clouds: broken clouds at 500 feet AGL
broken clouds at 2000 feet AGL
Weather: -SHRA BR  (light rain showers, mist)

METAR text: ZSHC 180330Z 12002MPS 080V170 2500 -RA BR BKN005 BKN020 06/06 Q1021 NOSIG
Conditions at: ZSHC (HANGZHOU/JIANQIA, CN) observed 0330 UTC 18 February 2019
Temperature: 6.0°C (43°F)
Dewpoint: 6.0°C (43°F) [RH = 100%]
Pressure (altimeter): 30.15 inches Hg (1021.0 mb)
Winds: from the ESE (120 degrees) at 5 MPH (4 knots; 2.1 m/s)
Visibility: 1.55 miles (2.49 km)
Ceiling: 500 feet AGL
Clouds: broken clouds at 500 feet AGL
broken clouds at 2000 feet AGL
Weather: -RA BR  (light rain, mist)

METAR text: ZSHC 180300Z 12002MPS 080V240 2500 -RA BR SCT005 BKN020 06/06 Q1022 NOSIG
Conditions at: ZSHC (HANGZHOU/JIANQIA, CN) observed 0300 UTC 18 February 2019
Temperature: 6.0°C (43°F)
Dewpoint: 6.0°C (43°F) [RH = 100%]
Pressure (altimeter): 30.18 inches Hg (1022.0 mb)
Winds: from the ESE (120 degrees) at 5 MPH (4 knots; 2.1 m/s)
Visibility: 1.55 miles (2.49 km)
Ceiling: 2000 feet AGL
Clouds: scattered clouds at 500 feet AGL
broken clouds at 2000 feet AGL
Weather: -RA BR  (light rain, mist)

METAR text: ZSHC 180230Z 11004MPS 2500 -RA BR SCT005 BKN020 06/06 Q1022 NOSIG
Conditions at: ZSHC (HANGZHOU/JIANQIA, CN) observed 0230 UTC 18 February 2019
Temperature: 6.0°C (43°F)
Dewpoint: 6.0°C (43°F) [RH = 100%]
Pressure (altimeter): 30.18 inches Hg (1022.0 mb)
Winds: from the ESE (110 degrees) at 9 MPH (8 knots; 4.1 m/s)
Visibility: 1.55 miles (2.49 km)
Ceiling: 2000 feet AGL
Clouds: scattered clouds at 500 feet AGL
broken clouds at 2000 feet AGL
Weather: -RA BR  (light rain, mist)

METAR text: ZSHC 180200Z 11003MPS 070V150 2100 -RA BR SCT005 BKN020 06/05 Q1022 BECMG TL0230 3000
Conditions at: ZSHC (HANGZHOU/JIANQIA, CN) observed 0200 UTC 18 February 2019
Temperature: 6.0°C (43°F)
Dewpoint: 5.0°C (41°F) [RH = 93%]
Pressure (altimeter): 30.18 inches Hg (1022.0 mb)
Winds: from the ESE (110 degrees) at 7 MPH (6 knots; 3.1 m/s)
Visibility: 1.30 miles (2.09 km)
Ceiling: 2000 feet AGL
Clouds: scattered clouds at 500 feet AGL
broken clouds at 2000 feet AGL
Weather: -RA BR  (light rain, mist)

METAR text: ZSHC 180130Z 11002MPS 060V190 2000 -SHRA BR SCT008 BKN020 06/05 Q1023 NOSIG
Conditions at: ZSHC (HANGZHOU/JIANQIA, CN) observed 0130 UTC 18 February 2019
Temperature: 6.0°C (43°F)
Dewpoint: 5.0°C (41°F) [RH = 93%]
Pressure (altimeter): 30.21 inches Hg (1023.0 mb)
Winds: from the ESE (110 degrees) at 5 MPH (4 knots; 2.1 m/s)
Visibility: 1.24 miles (2.00 km)
Ceiling: 2000 feet AGL
Clouds: scattered clouds at 800 feet AGL
broken clouds at 2000 feet AGL
Weather: -SHRA BR  (light rain showers, mist)

METAR text: ZSHC 180100Z 10004MPS 3500 -RA BR SCT006 BKN020 05/05 Q1022 NOSIG
Conditions at: ZSHC (HANGZHOU/JIANQIA, CN) observed 0100 UTC 18 February 2019
Temperature: 5.0°C (41°F)
Dewpoint: 5.0°C (41°F) [RH = 100%]
Pressure (altimeter): 30.18 inches Hg (1022.0 mb)
Winds: from the E (100 degrees) at 9 MPH (8 knots; 4.1 m/s)
Visibility: 2.17 miles (3.49 km)
Ceiling: 2000 feet AGL
Clouds: scattered clouds at 600 feet AGL
broken clouds at 2000 feet AGL
Weather: -RA BR  (light rain, mist)

METAR text: ZSHC 180030Z 10003MPS 070V130 4000 BR SCT006 BKN020 05/05 Q1023 NOSIG
Conditions at: ZSHC (HANGZHOU/JIANQIA, CN) observed 0030 UTC 18 February 2019
Temperature: 5.0°C (41°F)
Dewpoint: 5.0°C (41°F) [RH = 100%]
Pressure (altimeter): 30.21 inches Hg (1023.0 mb)
Winds: from the E (100 degrees) at 7 MPH (6 knots; 3.1 m/s)
Visibility: 2.49 miles (4.01 km)
Ceiling: 2000 feet AGL
Clouds: scattered clouds at 600 feet AGL
broken clouds at 2000 feet AGL
Weather: BR  (mist)

METAR text: ZSHC 180000Z 17002MPS 110V220 4000 -RA BR SCT006 BKN020 05/05 Q1024 NOSIG
Conditions at: ZSHC (HANGZHOU/JIANQIA, CN) observed 0000 UTC 18 February 2019
Temperature: 5.0°C (41°F)
Dewpoint: 5.0°C (41°F) [RH = 100%]
Pressure (altimeter): 30.24 inches Hg (1024.0 mb)
Winds: from the S (170 degrees) at 5 MPH (4 knots; 2.1 m/s)
Visibility: 2.49 miles (4.01 km)
Ceiling: 2000 feet AGL
Clouds: scattered clouds at 600 feet AGL
broken clouds at 2000 feet AGL
Weather: -RA BR  (light rain, mist)

METAR text: ZSHC 172330Z 11003MPS 070V140 4000 -RA BR SCT006 BKN020 05/05 Q1023 NOSIG
Conditions at: ZSHC (HANGZHOU/JIANQIA, CN) observed 2330 UTC 17 February 2019
Temperature: 5.0°C (41°F)
Dewpoint: 5.0°C (41°F) [RH = 100%]
Pressure (altimeter): 30.21 inches Hg (1023.0 mb)
Winds: from the ESE (110 degrees) at 7 MPH (6 knots; 3.1 m/s)
Visibility: 2.49 miles (4.01 km)
Ceiling: 2000 feet AGL
Clouds: scattered clouds at 600 feet AGL
broken clouds at 2000 feet AGL
Weather: -RA BR  (light rain, mist)

Forecast for: ZSHC (HANGZHOU/JIANQIA, CN)
Text: TAF ZSHC 190906Z 1912/2012 01003MPS 3000 -RA BR SCT007 BKN020 TX10/2006Z TN06/1921Z
Forecast period: 1200 to 2200 UTC 19 February 2019
Forecast type: FROM: standard forecast or significant change
Winds: from the N (10 degrees) at 7 MPH (6 knots; 3.1 m/s)
Visibility: 1.86 miles (2.99 km)
Ceiling: 2000 feet AGL
Clouds: scattered clouds at 700 feet AGL
broken clouds at 2000 feet AGL
Weather: -RA BR  (light rain, mist)
Text: BECMG 1922/1923 2000 -RA BR
Forecast period: 2200 UTC 19 February 2019 to 0100 UTC 20 February 2019
Forecast type: BECOMING: Conditions expected to become as follows by 2300 UTC 19 February 2019
Winds: from the N (10 degrees) at 7 MPH (6 knots; 3.1 m/s)
Visibility: 1.24 miles (2.00 km)
Ceiling: 2000 feet AGL
Clouds: scattered clouds at 700 feet AGL
broken clouds at 2000 feet AGL
Weather: -RA BR  (light rain, mist)
Text: BECMG 2001/2002 3000 -RA BR
Forecast period: 0100 to 1200 UTC 20 February 2019
Forecast type: BECOMING: Conditions expected to become as follows by 0200 UTC 20 February 2019
Winds: from the N (10 degrees) at 7 MPH (6 knots; 3.1 m/s)
Visibility: 1.86 miles (2.99 km)
Ceiling: 2000 feet AGL
Clouds: scattered clouds at 700 feet AGL
broken clouds at 2000 feet AGL
Weather: -RA BR  (light rain, mist)